Time;durP1;ratioP1;P1;durP2;ratioP2;P2;SDS_P1;SDS_P2;PMS_P1;PMS_P2;Temp;Humidity;BMP_temperature;BMP_pressure;BME280_temperature;BME280_humidity;BME280_pressure;Samples;Min_cycle;Max_cycle;Signal;HPM_P1;HPM_P2
2023/02/03 00:01:09;;;;;;;7.20;4.40;;;;;;;1.17;88.58;99937.90;1816257;79;21160;-80
2023/02/03 00:04:15;;;;;;;12.53;5.60;;;;;;;0.40;91.73;99933.78;1795424;79;21164;-85
2023/02/03 00:07:21;;;;;;;10.20;5.70;;;;;;;0.72;90.22;99933.92;1815732;77;21195;-82
2023/02/03 00:10:27;;;;;;;12.50;7.58;;;;;;;0.53;90.64;99927.44;1816146;79;21193;-78
2023/02/03 00:13:33;;;;;;;16.23;8.23;;;;;;;0.56;90.52;99932.56;1816153;77;21163;-85
2023/02/03 00:16:39;;;;;;;14.65;9.58;;;;;;;0.46;91.34;99928.40;1814931;77;21185;-80
2023/02/03 00:19:45;;;;;;;15.23;9.20;;;;;;;0.49;91.36;99933.55;1814783;79;22146;-85
2023/02/03 00:22:52;;;;;;;14.40;8.45;;;;;;;0.43;91.65;99931.36;1814777;77;21187;-85
2023/02/03 00:25:57;;;;;;;14.80;7.90;;;;;;;0.51;91.64;99927.55;1815334;79;21157;-79
2023/02/03 00:29:05;;;;;;;16.02;8.23;;;;;;;0.43;91.66;99925.48;1792428;79;21156;-83
2023/02/03 00:32:12;;;;;;;13.60;7.12;;;;;;;0.46;91.50;99931.94;1815793;77;21756;-85
2023/02/03 00:35:19;;;;;;;15.93;8.00;;;;;;;0.37;91.47;99931.81;1815951;79;21219;-86
2023/02/03 00:38:24;;;;;;;9.75;5.65;;;;;;;0.43;91.58;99931.36;1814837;77;21196;-80
2023/02/03 00:41:30;;;;;;;10.98;5.90;;;;;;;0.45;91.10;99939.66;1814535;77;21163;-85
2023/02/03 00:44:35;;;;;;;10.85;5.65;;;;;;;0.38;91.71;99942.97;1796824;79;21152;-79
2023/02/03 00:47:40;;;;;;;11.38;5.85;;;;;;;0.40;91.84;99946.38;1815420;77;21187;-86
2023/02/03 00:50:46;;;;;;;7.75;5.22;;;;;;;0.38;91.96;99946.52;1814904;79;21172;-85
2023/02/03 00:53:54;;;;;;;11.18;6.03;;;;;;;0.40;91.82;99943.20;1815951;79;21694;-86
2023/02/03 00:56:59;;;;;;;12.78;5.60;;;;;;;0.46;91.55;99941.86;1811959;78;21705;-86
2023/02/03 01:00:04;;;;;;;11.78;5.53;;;;;;;0.46;91.50;99945.40;1796342;79;21278;-83
2023/02/03 01:03:11;;;;;;;9.63;5.62;;;;;;;0.38;91.68;99944.31;1812552;78;21167;-79
2023/02/03 01:06:21;;;;;;;9.40;5.58;;;;;;;0.37;91.70;99942.09;1812885;78;21160;-87
2023/02/03 01:09:27;;;;;;;9.40;5.20;;;;;;;0.42;91.79;99945.27;1813572;79;21136;-81
2023/02/03 01:12:33;;;;;;;7.83;5.30;;;;;;;0.45;91.62;99948.22;1812959;78;21168;-80
2023/02/03 01:15:40;;;;;;;11.22;4.78;;;;;;;0.39;91.26;99945.53;1796105;79;21156;-80
2023/02/03 01:18:46;;;;;;;7.17;5.10;;;;;;;0.33;90.95;99947.83;1813297;79;21180;-86
2023/02/03 01:21:52;;;;;;;10.55;5.50;;;;;;;0.24;90.78;99939.52;1813248;78;21729;-86
2023/02/03 01:24:58;;;;;;;10.75;5.17;;;;;;;0.19;90.96;99940.86;1813689;79;21220;-81
2023/02/03 01:28:04;;;;;;;9.20;5.58;;;;;;;0.15;91.08;99932.16;1812534;78;21180;-80
2023/02/03 01:31:19;;;;;;;8.48;4.90;;;;;;;0.15;91.09;99931.31;1813602;79;21148;-85
2023/02/03 01:34:25;;;;;;;11.85;5.65;;;;;;;0.09;90.91;99940.69;1813000;79;21195;-80
2023/02/03 01:37:30;;;;;;;13.83;6.50;;;;;;;-0.01;91.13;99939.69;1812420;78;21160;-86
2023/02/03 01:40:36;;;;;;;8.38;5.55;;;;;;;0.05;91.36;99942.38;1813544;79;21152;-86
2023/02/03 01:43:46;;;;;;;10.95;8.33;;;;;;;0.05;91.63;99938.35;1813712;79;21685;-85
2023/02/03 01:46:54;;;;;;;15.65;10.40;;;;;;;0.07;91.47;99935.93;1813764;78;21192;-80
2023/02/03 01:50:18;;;;;;;17.32;11.50;;;;;;;0.10;91.17;99939.73;1813629;79;21219;-86
2023/02/03 01:53:25;;;;;;;17.27;10.93;;;;;;;0.04;91.29;99930.77;1812438;78;21188;-81
2023/02/03 01:56:32;;;;;;;16.87;10.18;;;;;;;0.09;91.23;99935.31;1810763;78;21180;-80
2023/02/03 01:59:38;;;;;;;14.23;8.78;;;;;;;0.06;91.23;99932.87;1813587;79;21204;-86
2023/02/03 02:02:43;;;;;;;12.53;9.35;;;;;;;0.02;91.69;99933.23;1812117;78;21191;-81
2023/02/03 02:05:55;;;;;;;16.32;9.83;;;;;;;0.02;92.00;99931.39;1812253;79;21311;-85
2023/02/03 02:09:03;;;;;;;11.80;8.13;;;;;;;0.05;91.89;99927.14;1813675;79;21334;-85
2023/02/03 02:12:02;;;;;;;11.93;8.30;;;;;;;0.06;91.86;99934.71;1813413;78;21191;-87
2023/02/03 02:15:08;;;;;;;15.32;8.93;;;;;;;0.02;92.04;99930.05;1813194;79;21180;-80
2023/02/03 02:18:36;;;;;;;13.45;9.35;;;;;;;0.04;92.09;99938.84;1812294;78;21215;-85
2023/02/03 02:22:10;;;;;;;12.18;8.00;;;;;;;0.06;92.16;99935.56;1813501;78;21184;-79
2023/02/03 02:25:48;;;;;;;27.52;14.85;;;;;;;-0.19;92.63;99945.13;1813672;79;21195;-86
2023/02/03 02:29:32;;;;;;;23.07;12.65;;;;;;;-0.26;93.12;99940.22;1807454;79;21287;-84
2023/02/03 02:32:45;;;;;;;18.32;11.88;;;;;;;-0.35;93.81;99934.20;1813085;78;21203;-86
2023/02/03 02:36:33;;;;;;;17.20;12.23;;;;;;;-0.57;94.92;99938.13;1812761;79;21749;-86
2023/02/03 02:39:58;;;;;;;14.87;10.40;;;;;;;-0.57;95.16;99941.66;1807209;79;21701;-80
2023/02/03 02:43:29;;;;;;;23.62;14.47;;;;;;;-0.56;94.70;99941.20;1815458;78;21760;-85
2023/02/03 02:46:56;;;;;;;19.80;13.08;;;;;;;-0.50;94.80;99943.42;1797274;78;21176;-82
2023/02/03 02:50:11;;;;;;;19.32;12.60;;;;;;;-0.44;94.65;99944.78;1816583;78;21156;-80
2023/02/03 02:53:17;;;;;;;14.65;9.70;;;;;;;-0.62;94.54;99941.16;1797356;79;21189;-87
2023/02/03 02:56:23;;;;;;;15.00;9.33;;;;;;;-0.31;95.66;99937.03;1793369;80;21197;-80
2023/02/03 02:59:30;;;;;;;17.23;10.82;;;;;;;-0.29;94.50;99943.13;1793062;80;21177;-84
2023/02/03 03:02:42;;;;;;;19.55;11.80;;;;;;;-0.01;94.25;99938.34;1793462;80;21758;-86
2023/02/03 03:05:49;;;;;;;25.27;13.18;;;;;;;0.07;94.40;99938.62;1793763;80;21189;-80
2023/02/03 03:09:06;;;;;;;18.37;11.13;;;;;;;0.16;94.10;99941.09;1793137;80;21193;-79
2023/02/03 03:12:25;;;;;;;19.05;11.05;;;;;;;0.24;94.15;99938.67;1747203;80;21201;-87
2023/02/03 03:15:34;;;;;;;18.53;12.00;;;;;;;0.24;94.00;99944.05;1794481;80;21204;-80
2023/02/03 03:18:48;;;;;;;17.12;10.95;;;;;;;0.29;93.57;99935.13;1792639;80;21213;-81
2023/02/03 03:22:02;;;;;;;14.47;9.30;;;;;;;0.20;93.82;99937.19;1793599;80;21799;-81
2023/02/03 03:25:25;;;;;;;14.10;9.18;;;;;;;0.28;93.51;99932.53;1792636;80;21190;-86
2023/02/03 03:28:36;;;;;;;13.60;9.63;;;;;;;-0.24;95.44;99936.55;1792814;80;21749;-85
2023/02/03 03:31:42;;;;;;;11.75;8.70;;;;;;;-0.39;96.58;99933.20;1792658;80;21193;-85
2023/02/03 03:34:48;;;;;;;11.63;8.20;;;;;;;0.13;95.62;99926.52;1794232;80;21161;-83
2023/02/03 03:38:05;;;;;;;16.87;10.55;;;;;;;0.19;94.54;99928.27;1792664;80;21750;-79
2023/02/03 03:41:14;;;;;;;8.33;6.70;;;;;;;0.34;93.77;99924.86;1794080;80;21233;-86
2023/02/03 03:44:10;;;;;;;12.98;8.40;;;;;;;0.43;93.39;99917.91;1794142;80;21208;-86
2023/02/03 03:47:16;;;;;;;11.40;7.95;;;;;;;0.36;93.40;99933.66;1793913;80;21762;-80
2023/02/03 03:50:09;;;;;;;11.90;8.25;;;;;;;0.28;94.19;99933.39;1794111;80;21157;-84
2023/02/03 03:52:56;;;;;;;11.88;7.97;;;;;;;0.28;94.57;99940.61;1793209;80;21204;-85
2023/02/03 03:56:01;;;;;;;18.15;8.33;;;;;;;0.31;94.85;99935.84;1794192;80;21188;-80
2023/02/03 03:59:06;;;;;;;15.80;8.58;;;;;;;0.46;94.63;99939.16;1792438;80;21229;-79
2023/02/03 04:02:12;;;;;;;14.85;8.83;;;;;;;0.34;95.01;99939.66;1793722;80;21457;-79
2023/02/03 04:05:18;;;;;;;13.53;7.80;;;;;;;0.39;95.22;99933.42;1794247;79;21161;-82
2023/02/03 04:08:24;;;;;;;11.08;7.75;;;;;;;0.64;94.74;99932.81;1792674;79;21200;-79
2023/02/03 04:14:53;;;;;;;10.30;7.72;;;;;;;0.73;93.77;99942.36;1792491;80;21118;-80
2023/02/03 04:18:00;;;;;;;13.00;7.85;;;;;;;0.46;93.70;99939.16;1794128;80;21201;-80
2023/02/03 04:21:05;;;;;;;10.63;7.92;;;;;;;0.40;93.92;99950.42;1794175;80;21173;-80
2023/02/03 04:24:12;;;;;;;11.65;7.53;;;;;;;0.30;94.10;99953.47;1794288;80;21146;-85
2023/02/03 04:27:17;;;;;;;10.48;7.58;;;;;;;0.34;94.47;99952.25;1793628;80;21236;-85
2023/02/03 04:30:22;;;;;;;11.70;7.75;;;;;;;0.33;94.46;99962.63;1793834;80;21185;-85
2023/02/03 04:33:28;;;;;;;13.58;8.20;;;;;;;0.37;94.34;99957.38;1792778;80;21201;-86
2023/02/03 04:36:33;;;;;;;15.40;10.25;;;;;;;0.43;94.52;99970.37;1794054;80;21145;-81
2023/02/03 04:39:40;;;;;;;18.42;11.10;;;;;;;0.58;94.86;99969.16;1793181;80;21248;-85
2023/02/03 04:42:46;;;;;;;19.25;11.38;;;;;;;0.75;94.09;99972.73;1793306;80;21644;-81
2023/02/03 04:45:53;;;;;;;11.38;8.35;;;;;;;0.68;94.83;99972.83;1794323;80;21149;-84
2023/02/03 04:48:59;;;;;;;14.53;10.08;;;;;;;0.81;94.64;99974.06;1793828;80;21208;-86
2023/02/03 04:52:05;;;;;;;14.23;9.60;;;;;;;0.69;94.08;99975.03;1793803;80;21216;-85
2023/02/03 04:55:11;;;;;;;21.55;10.82;;;;;;;0.82;93.77;99970.39;1794069;80;21174;-81
2023/02/03 04:58:16;;;;;;;20.10;10.82;;;;;;;1.04;92.99;99983.00;1791946;80;21742;-81
2023/02/03 05:01:21;;;;;;;22.73;12.70;;;;;;;1.14;92.44;99983.11;1791997;80;21178;-80
2023/02/03 05:04:27;;;;;;;16.87;11.20;;;;;;;1.21;91.83;99991.91;1790478;80;21686;-80
2023/02/03 05:07:32;;;;;;;18.92;10.85;;;;;;;1.13;92.24;99994.38;1791490;80;21185;-80
2023/02/03 05:10:38;;;;;;;19.55;12.88;;;;;;;1.09;92.46;99997.45;1790665;80;21603;-85
2023/02/03 05:13:44;;;;;;;16.17;11.05;;;;;;;1.03;92.66;99997.42;1791861;80;21150;-86
2023/02/03 05:16:50;;;;;;;15.88;11.18;;;;;;;0.85;93.08;99996.20;1791736;80;21639;-86
2023/02/03 05:19:55;;;;;;;18.73;12.23;;;;;;;1.12;92.26;99999.38;1790994;80;21484;-80
2023/02/03 05:23:01;;;;;;;12.43;9.33;;;;;;;1.06;91.90;100001.23;1790529;80;21174;-85
2023/02/03 05:26:07;;;;;;;18.50;10.82;;;;;;;0.64;92.87;100005.00;1792059;80;21158;-86
2023/02/03 05:29:13;;;;;;;18.82;11.18;;;;;;;0.72;93.32;100005.27;1791794;80;21735;-81
2023/02/03 05:32:18;;;;;;;16.45;11.05;;;;;;;0.66;93.52;100008.45;1791478;80;21217;-81
2023/02/03 05:35:25;;;;;;;22.17;11.48;;;;;;;0.44;93.78;100006.57;1790245;80;21545;-80
2023/02/03 05:38:30;;;;;;;14.73;10.35;;;;;;;0.56;93.90;100010.13;1790927;80;21181;-80
2023/02/03 05:41:54;;;;;;;20.82;12.50;;;;;;;0.70;93.89;100015.28;1791839;80;21307;-85
2023/02/03 05:45:00;;;;;;;13.40;9.63;;;;;;;0.67;93.07;100016.89;1791809;80;21209;-85
2023/02/03 05:48:06;;;;;;;10.72;7.53;;;;;;;0.66;93.66;100017.88;1790390;80;21754;-86
2023/02/03 05:51:11;;;;;;;9.18;6.97;;;;;;;0.50;94.34;100026.27;1790554;80;21598;-81
2023/02/03 05:54:18;;;;;;;7.85;5.92;;;;;;;0.60;93.89;100024.20;1790897;80;21476;-86
2023/02/03 05:57:23;;;;;;;11.57;7.83;;;;;;;0.37;94.11;100028.67;1790318;80;21749;-86
2023/02/03 06:00:30;;;;;;;13.25;6.95;;;;;;;0.40;93.97;100028.45;1792015;80;21181;-79
2023/02/03 06:03:36;;;;;;;9.30;7.03;;;;;;;0.39;93.52;100032.98;1792531;80;21272;-84
2023/02/03 06:06:46;;;;;;;10.50;7.33;;;;;;;0.27;94.09;100037.95;1790363;80;21733;-85
2023/02/03 06:09:52;;;;;;;9.15;6.90;;;;;;;0.33;94.09;100037.95;1798093;79;21424;-84
2023/02/03 06:13:00;;;;;;;8.75;6.28;;;;;;;0.20;94.43;100032.68;1750741;80;21805;-80
2023/02/03 06:16:06;;;;;;;8.78;6.40;;;;;;;0.48;94.17;100036.31;1757719;81;21201;-80
2023/02/03 06:19:13;;;;;;;12.23;7.35;;;;;;;0.60;92.90;100033.13;1740256;81;21169;-80
2023/02/03 06:22:19;;;;;;;10.75;7.03;;;;;;;0.36;93.22;100041.27;1724275;81;21192;-79
2023/02/03 06:25:26;;;;;;;10.60;7.30;;;;;;;0.36;94.05;100045.31;1733613;81;21757;-80
2023/02/03 06:28:32;;;;;;;10.75;7.83;;;;;;;0.54;94.46;100045.73;1756741;80;21158;-80
2023/02/03 06:31:38;;;;;;;17.85;12.58;;;;;;;0.61;94.64;100047.45;1736183;82;21187;-80
2023/02/03 06:34:38;;;;;;;11.93;8.10;;;;;;;0.76;94.29;100046.27;1708449;84;21202;-78
2023/02/03 06:37:45;;;;;;;10.95;7.28;;;;;;;1.00;94.13;100045.68;1729756;82;21148;-78
2023/02/03 06:40:54;;;;;;;8.63;6.87;;;;;;;0.87;94.75;100044.93;1737329;82;21191;-77
2023/02/03 06:43:59;;;;;;;8.75;6.55;;;;;;;1.03;94.33;100039.17;1737917;82;21594;-78
2023/02/03 06:47:03;;;;;;;8.78;6.83;;;;;;;1.02;93.98;100036.97;1710408;82;21208;-79
2023/02/03 06:50:09;;;;;;;11.65;7.72;;;;;;;0.87;93.95;100031.95;1724811;81;21181;-80
2023/02/03 06:53:16;;;;;;;10.55;7.58;;;;;;;0.84;93.63;100035.73;1736118;81;21199;-79
2023/02/03 06:56:22;;;;;;;12.50;8.73;;;;;;;0.83;93.54;100038.56;1749994;81;22624;-79
2023/02/03 06:59:27;;;;;;;9.00;6.67;;;;;;;1.08;93.50;100035.62;1721105;81;21170;-79
2023/02/03 07:02:33;;;;;;;10.38;7.08;;;;;;;1.18;93.62;100035.28;1727763;81;21794;-79
2023/02/03 07:05:39;;;;;;;11.03;7.83;;;;;;;1.37;93.38;100039.19;1777391;79;21745;-79
2023/02/03 07:08:44;;;;;;;10.48;7.60;;;;;;;1.34;93.56;100040.77;1796220;79;21205;-79
2023/02/03 07:11:51;;;;;;;11.65;8.68;;;;;;;1.42;92.81;100047.76;1784865;79;21267;-79
2023/02/03 07:14:56;;;;;;;11.25;7.92;;;;;;;1.46;92.69;100046.03;1775572;80;21161;-79
2023/02/03 07:18:02;;;;;;;10.15;7.42;;;;;;;1.57;92.55;100047.84;1780806;79;21199;-79
2023/02/03 07:21:01;;;;;;;11.18;8.13;;;;;;;1.74;92.20;100051.38;1780363;79;21894;-79
2023/02/03 07:24:06;;;;;;;14.63;10.18;;;;;;;1.62;92.80;100051.02;1751060;82;21156;-78
2023/02/03 07:27:11;;;;;;;17.20;11.60;;;;;;;1.56;93.10;100049.33;1770666;78;21612;-80
2023/02/03 07:30:17;;;;;;;14.47;10.45;;;;;;;1.62;93.53;100048.82;1779736;80;21144;-77
2023/02/03 07:33:22;;;;;;;12.80;8.43;;;;;;;1.90;92.82;100040.16;1780230;79;21226;-77
2023/02/03 07:36:28;;;;;;;15.13;10.10;;;;;;;1.79;92.81;100031.62;1777149;78;21693;-77
2023/02/03 07:39:34;;;;;;;18.65;10.50;;;;;;;1.94;92.20;100039.42;1776352;79;21243;-77
2023/02/03 07:42:40;;;;;;;17.67;11.25;;;;;;;2.15;91.87;100043.01;1779874;79;21254;-76
2023/02/03 07:45:46;;;;;;;17.67;12.53;;;;;;;2.27;91.83;100037.94;1786113;79;21183;-77
2023/02/03 07:48:53;;;;;;;22.13;13.20;;;;;;;2.48;91.44;100043.34;1782397;79;21740;-77
2023/02/03 07:51:59;;;;;;;20.43;14.05;;;;;;;2.56;91.06;100030.55;1783475;79;21576;-77
2023/02/03 07:55:05;;;;;;;17.42;12.18;;;;;;;2.49;91.33;100037.44;1786376;79;21202;-77
2023/02/03 07:58:11;;;;;;;21.23;13.55;;;;;;;2.60;91.08;100037.89;1782592;79;21194;-77
2023/02/03 08:01:21;;;;;;;20.27;12.85;;;;;;;2.43;91.94;100029.38;1783896;79;21238;-77
2023/02/03 08:04:27;;;;;;;21.00;12.85;;;;;;;2.43;92.11;100032.58;1752669;80;22049;-85
2023/02/03 08:07:34;;;;;;;18.67;13.45;;;;;;;2.73;91.81;100028.59;1751352;79;21153;-85
2023/02/03 08:10:41;;;;;;;22.35;14.05;;;;;;;2.50;91.22;100022.98;1763422;79;21203;-84
2023/02/03 08:13:47;;;;;;;23.50;15.15;;;;;;;2.42;91.84;100029.02;1715472;83;21700;-82
2023/02/03 08:16:52;;;;;;;23.73;14.23;;;;;;;2.43;91.79;100029.88;1761988;81;21173;-82
2023/02/03 08:20:00;;;;;;;24.43;15.90;;;;;;;2.45;91.50;100029.27;1748811;80;21729;-83
2023/02/03 08:23:06;;;;;;;26.12;15.23;;;;;;;2.39;91.96;100033.32;1727902;81;21405;-83
2023/02/03 08:26:12;;;;;;;29.10;16.70;;;;;;;2.49;92.60;100031.58;1731499;81;21766;-83
2023/02/03 08:29:18;;;;;;;24.75;14.93;;;;;;;2.68;92.17;100029.50;1765048;80;21166;-85
2023/02/03 08:32:25;;;;;;;26.23;15.13;;;;;;;2.78;92.13;100032.25;1752393;80;21187;-83
2023/02/03 08:35:33;;;;;;;22.02;14.43;;;;;;;2.78;92.97;100028.20;1761178;80;21173;-83
2023/02/03 08:38:38;;;;;;;22.37;14.55;;;;;;;2.76;93.19;100028.81;1760910;81;21703;-79
2023/02/03 08:41:43;;;;;;;25.45;14.87;;;;;;;2.95;93.00;100032.11;1719227;82;21555;-83
2023/02/03 08:44:50;;;;;;;25.80;14.33;;;;;;;2.99;93.11;100030.86;1765810;79;21220;-83
2023/02/03 08:47:50;;;;;;;21.42;12.65;;;;;;;3.22;93.22;100023.42;1750702;81;21260;-83
2023/02/03 08:50:56;;;;;;;21.97;12.37;;;;;;;3.41;93.41;100025.34;1761178;80;21138;-83
2023/02/03 08:54:03;;;;;;;20.57;12.80;;;;;;;3.38;93.51;100018.84;1764502;80;21750;-78
2023/02/03 08:57:09;;;;;;;20.72;12.90;;;;;;;3.59;92.60;100011.52;1758956;79;21141;-78
2023/02/03 09:00:16;;;;;;;22.95;10.65;;;;;;;3.65;92.81;100003.34;1749451;80;21233;-78
2023/02/03 09:03:23;;;;;;;14.63;8.05;;;;;;;3.72;92.40;100008.56;1762346;79;21770;-79
2023/02/03 09:06:28;;;;;;;11.60;7.20;;;;;;;3.61;92.75;100003.26;1761802;80;21145;-78
2023/02/03 09:09:34;;;;;;;10.93;6.83;;;;;;;3.72;93.27;100005.36;1758673;79;21157;-79
2023/02/03 09:12:41;;;;;;;13.15;7.25;;;;;;;3.76;93.59;99997.30;1765659;81;21200;-79
2023/02/03 09:15:47;;;;;;;7.67;5.75;;;;;;;4.12;92.67;99993.56;1766385;80;21172;-84
2023/02/03 09:18:53;;;;;;;13.65;7.50;;;;;;;3.92;93.29;99994.55;1765731;79;21163;-84
2023/02/03 09:21:59;;;;;;;10.35;6.12;;;;;;;4.11;92.59;99991.85;1766157;81;21180;-83
2023/02/03 09:25:04;;;;;;;9.15;6.28;;;;;;;4.02;92.22;99985.44;1766485;80;21185;-84
2023/02/03 09:28:11;;;;;;;12.10;5.62;;;;;;;4.36;90.31;99983.13;1762813;79;21750;-84
2023/02/03 09:31:21;;;;;;;7.67;5.40;;;;;;;4.05;89.96;99973.48;1766993;80;21168;-79
2023/02/03 09:34:28;;;;;;;10.18;6.15;;;;;;;4.07;89.37;99976.89;1723570;82;21722;-83
2023/02/03 09:37:35;;;;;;;12.10;6.47;;;;;;;4.00;89.32;99972.56;1763126;79;21208;-84
2023/02/03 09:40:43;;;;;;;9.28;5.28;;;;;;;4.02;89.68;99977.31;1712730;83;21220;-83
2023/02/03 09:44:17;;;;;;;10.05;5.90;;;;;;;4.01;89.34;99964.80;1755418;81;21227;-78
2023/02/03 09:47:28;;;;;;;13.98;6.40;;;;;;;4.06;89.44;99962.50;1748596;80;21226;-79
2023/02/03 09:50:35;;;;;;;7.40;5.78;;;;;;;4.28;89.22;99949.17;1768725;81;21192;-79
2023/02/03 09:53:46;;;;;;;8.70;5.65;;;;;;;4.06;89.36;99953.53;1767474;81;21184;-84
2023/02/03 09:56:54;;;;;;;9.78;5.10;;;;;;;4.15;89.43;99945.91;1781570;79;21219;-84
2023/02/03 10:00:01;;;;;;;7.62;4.85;;;;;;;4.22;89.35;99946.17;1768380;81;21161;-80
2023/02/03 10:03:19;;;;;;;8.98;5.33;;;;;;;4.16;89.09;99947.61;1754357;80;21714;-84
2023/02/03 10:06:51;;;;;;;8.60;5.47;;;;;;;4.27;88.63;99943.38;1768425;80;21156;-85
2023/02/03 10:10:15;;;;;;;16.20;9.00;;;;;;;4.31;87.81;99946.16;1769619;79;21757;-78
2023/02/03 10:13:41;;;;;;;9.85;6.17;;;;;;;4.31;88.00;99938.03;1769858;79;21188;-83
2023/02/03 10:16:53;;;;;;;13.50;6.97;;;;;;;4.36;87.94;99941.16;1769196;79;21204;-83
2023/02/03 10:20:22;;;;;;;10.88;6.75;;;;;;;4.56;87.19;99937.93;1776659;79;21214;-77
2023/02/03 10:23:40;;;;;;;10.32;6.60;;;;;;;4.49;86.97;99935.94;1755654;81;21199;-83
2023/02/03 10:26:47;;;;;;;8.93;5.78;;;;;;;4.50;87.84;99943.91;1768622;79;21566;-80
2023/02/03 10:29:54;;;;;;;11.25;6.67;;;;;;;4.46;87.35;99938.93;1767210;79;21187;-80
2023/02/03 10:33:08;;;;;;;11.80;6.42;;;;;;;4.50;87.06;99937.64;1769039;79;21789;-79
2023/02/03 10:36:28;;;;;;;8.63;6.17;;;;;;;4.66;86.26;99929.77;1763050;79;21750;-83
2023/02/03 10:39:55;;;;;;;14.15;5.70;;;;;;;4.54;86.27;99923.66;1776370;79;21143;-85
2023/02/03 10:46:36;;;;;;;10.25;6.40;;;;;;;4.85;84.99;99920.72;1759816;80;21488;-79
2023/02/03 10:49:42;;;;;;;10.98;5.85;;;;;;;4.95;84.05;99918.81;1733298;81;21198;-79
2023/02/03 10:52:47;;;;;;;8.30;6.03;;;;;;;4.90;84.00;99921.62;1733490;81;21193;-85
2023/02/03 10:55:57;;;;;;;9.05;5.30;;;;;;;5.07;83.51;99916.73;1727967;81;21226;-79
2023/02/03 10:59:08;;;;;;;10.85;5.55;;;;;;;4.94;83.34;99909.45;1726681;81;21157;-79
2023/02/03 11:02:31;;;;;;;9.20;5.12;;;;;;;4.99;82.83;99908.53;1735581;81;21770;-85
2023/02/03 11:05:37;;;;;;;8.75;5.47;;;;;;;5.12;82.57;99906.30;1757046;80;21179;-84
2023/02/03 11:08:45;;;;;;;10.48;5.80;;;;;;;5.23;82.36;99902.04;1757129;80;21141;-85
2023/02/03 11:11:50;;;;;;;8.15;5.58;;;;;;;5.20;82.20;99901.48;1794202;78;21192;-80
2023/02/03 11:14:58;;;;;;;11.43;5.70;;;;;;;5.28;81.64;99903.79;1788855;79;21167;-78
2023/02/03 11:18:03;;;;;;;8.90;5.62;;;;;;;5.34;81.50;99899.61;1764954;79;21144;-85
2023/02/03 11:21:13;;;;;;;10.70;6.10;;;;;;;5.26;81.86;99901.72;1756692;80;21191;-84
2023/02/03 11:24:33;;;;;;;10.90;6.67;;;;;;;5.21;81.98;99901.83;1766963;80;21173;-84
2023/02/03 11:27:39;;;;;;;11.08;6.28;;;;;;;5.27;81.57;99899.85;1738517;80;21775;-84
2023/02/03 11:30:46;;;;;;;8.23;4.42;;;;;;;5.53;80.80;99901.34;1783919;79;21159;-83
2023/02/03 11:33:57;;;;;;;5.62;4.60;;;;;;;5.52;80.57;99899.63;1784435;79;21238;-84
2023/02/03 11:37:03;;;;;;;5.62;4.10;;;;;;;5.58;80.70;99902.58;1788533;79;21530;-84
2023/02/03 11:40:24;;;;;;;6.85;4.03;;;;;;;5.63;80.33;99894.82;1783142;79;21144;-84
2023/02/03 11:43:30;;;;;;;6.05;4.67;;;;;;;5.52;80.17;99898.28;1776486;78;21179;-81
2023/02/03 11:46:36;;;;;;;7.10;4.15;;;;;;;5.57;80.34;99888.66;1782267;79;21599;-79
2023/02/03 11:50:18;;;;;;;8.28;4.95;;;;;;;5.74;79.37;99889.69;1782784;79;21146;-84
2023/02/03 11:53:48;;;;;;;7.37;4.83;;;;;;;5.57;79.21;99893.23;1783793;78;21191;-79
2023/02/03 11:57:04;;;;;;;8.33;5.33;;;;;;;5.70;78.72;99890.16;1777449;79;21223;-84
2023/02/03 12:00:39;;;;;;;11.57;5.58;;;;;;;5.68;78.46;99890.80;1788938;79;21181;-83
2023/02/03 12:04:04;;;;;;;8.10;5.85;;;;;;;5.86;77.46;99891.64;1788347;79;21230;-79
2023/02/03 12:07:36;;;;;;;9.00;6.12;;;;;;;5.94;77.38;99887.68;1786787;78;21195;-85
2023/02/03 12:11:16;;;;;;;9.28;5.33;;;;;;;6.02;76.51;99885.05;1802603;79;21187;-79
2023/02/03 12:14:38;;;;;;;6.72;4.47;;;;;;;6.02;75.57;99895.91;1688324;83;21281;-84
2023/02/03 12:17:54;;;;;;;12.37;5.20;;;;;;;5.60;76.31;99892.94;1763965;78;21215;-83
2023/02/03 12:21:19;;;;;;;6.12;4.28;;;;;;;5.46;76.50;99893.45;1769099;80;21722;-83
2023/02/03 12:24:55;;;;;;;7.67;4.28;;;;;;;5.69;75.71;99896.05;1769563;80;21107;-79
2023/02/03 12:28:22;;;;;;;6.37;4.58;;;;;;;5.61;74.45;99895.49;1762409;80;21199;-84
2023/02/03 12:32:05;;;;;;;10.43;5.47;;;;;;;5.52;74.60;99895.56;1767410;80;21160;-79
2023/02/03 12:35:32;;;;;;;10.95;5.67;;;;;;;5.33;74.41;99887.06;1780502;79;21178;-84
2023/02/03 12:38:54;;;;;;;10.58;6.67;;;;;;;5.32;73.94;99884.00;1779398;79;21732;-84
2023/02/03 12:42:18;;;;;;;8.03;4.95;;;;;;;5.18;74.25;99882.66;1783232;79;21164;-79
2023/02/03 12:45:38;;;;;;;7.90;5.62;;;;;;;5.03;74.84;99874.67;1734622;82;21211;-84
2023/02/03 12:49:06;;;;;;;12.23;5.55;;;;;;;5.26;73.84;99874.59;1783923;79;21615;-79
2023/02/03 12:52:34;;;;;;;8.63;4.78;;;;;;;4.95;74.71;99869.17;1791518;79;21205;-84
2023/02/03 12:55:49;;;;;;;9.40;4.72;;;;;;;4.87;74.23;99863.98;1690066;83;21152;-84
2023/02/03 12:59:12;;;;;;;8.18;5.25;;;;;;;4.84;73.49;99864.28;1739761;81;21171;-79
2023/02/03 13:02:23;;;;;;;13.53;5.42;;;;;;;4.84;72.66;99856.15;1737247;81;21217;-80
2023/02/03 13:05:50;;;;;;;6.17;3.92;;;;;;;4.91;72.42;99848.80;1789784;79;21156;-85
2023/02/03 13:09:17;;;;;;;13.03;5.90;;;;;;;5.00;72.71;99846.53;1794297;79;21138;-79
2023/02/03 13:12:50;;;;;;;12.25;6.22;;;;;;;4.89;73.07;99854.34;1784436;79;21197;-79
2023/02/03 13:15:56;;;;;;;12.13;5.87;;;;;;;4.92;73.17;99851.34;1784643;79;21467;-85
2023/02/03 13:19:05;;;;;;;9.93;5.90;;;;;;;4.93;73.08;99845.41;1778477;79;21705;-85
2023/02/03 13:22:18;;;;;;;9.40;5.35;;;;;;;4.82;73.51;99844.62;1789775;78;21796;-84
2023/02/03 13:25:45;;;;;;;12.82;5.87;;;;;;;5.39;72.16;99849.31;1785655;79;21359;-79
2023/02/03 13:29:31;;;;;;;10.08;4.40;;;;;;;5.22;72.27;99846.11;1789354;79;21138;-78
2023/02/03 13:33:04;;;;;;;8.98;5.45;;;;;;;5.40;71.71;99855.59;1778743;78;21197;-84
2023/02/03 13:36:30;;;;;;;19.67;10.65;;;;;;;5.36;71.92;99848.29;1785167;79;21168;-83
2023/02/03 13:39:54;;;;;;;16.17;8.15;;;;;;;5.42;71.90;99851.39;1789189;79;21430;-84
2023/02/03 13:43:08;;;;;;;17.40;7.35;;;;;;;5.17;72.37;99838.91;1789683;77;21181;-85
2023/02/03 13:46:18;;;;;;;18.40;8.00;;;;;;;4.95;72.98;99839.36;1787550;78;21196;-85
2023/02/03 13:49:35;;;;;;;12.28;5.92;;;;;;;4.99;72.82;99846.19;1785961;79;21703;-85
2023/02/03 13:52:57;;;;;;;13.08;7.42;;;;;;;5.24;72.04;99846.80;1797341;78;21693;-80
2023/02/03 13:56:08;;;;;;;17.17;7.55;;;;;;;4.89;72.74;99850.27;1739886;79;21569;-85
2023/02/03 13:59:23;;;;;;;9.00;5.28;;;;;;;4.80;73.22;99852.06;1759892;80;21146;-80
2023/02/03 14:02:35;;;;;;;7.60;4.60;;;;;;;4.82;73.01;99846.48;1759126;80;21180;-85
2023/02/03 14:05:53;;;;;;;8.27;4.67;;;;;;;4.79;73.07;99853.55;1786290;79;21557;-84
2023/02/03 14:08:58;;;;;;;9.00;4.87;;;;;;;4.82;72.91;99849.19;1745030;79;21227;-85
2023/02/03 14:12:31;;;;;;;7.92;5.62;;;;;;;4.83;72.80;99842.26;1744343;79;21203;-79
2023/02/03 14:15:39;;;;;;;9.60;7.22;;;;;;;4.94;72.15;99841.22;1703741;82;21200;-85
2023/02/03 14:18:54;;;;;;;14.85;8.50;;;;;;;5.03;72.07;99846.20;1736940;82;21163;-84
2023/02/03 14:22:03;;;;;;;11.90;7.10;;;;;;;4.81;72.31;99838.01;1754626;80;21221;-79
2023/02/03 14:25:12;;;;;;;10.80;5.40;;;;;;;4.79;71.78;99843.55;1756428;81;21236;-80
2023/02/03 14:28:21;;;;;;;11.57;5.85;;;;;;;4.65;72.07;99837.28;1755440;80;21156;-86
2023/02/03 14:31:33;;;;;;;19.67;9.85;;;;;;;4.57;72.43;99843.97;1757037;80;21193;-80
2023/02/03 14:34:48;;;;;;;25.80;14.35;;;;;;;4.60;72.26;99839.59;1749729;82;21688;-80
2023/02/03 14:38:02;;;;;;;17.65;9.80;;;;;;;4.78;71.78;99843.72;1753146;80;21212;-80
2023/02/03 14:41:09;;;;;;;11.33;7.60;;;;;;;4.38;72.62;99844.91;1768730;81;21729;-81
2023/02/03 14:44:49;;;;;;;7.45;5.25;;;;;;;4.16;73.21;99843.39;1722976;83;22098;-86
2023/02/03 14:48:18;;;;;;;9.00;4.92;;;;;;;4.39;71.94;99842.54;1769251;79;21192;-78
2023/02/03 14:52:13;;;;;;;8.55;5.35;;;;;;;4.28;72.61;99841.34;1755510;82;21162;-80
2023/02/03 14:56:00;;;;;;;12.65;6.35;;;;;;;4.04;72.98;99845.91;1771396;81;21196;-79
2023/02/03 14:59:09;;;;;;;17.80;7.87;;;;;;;3.89;73.57;99843.30;1755047;81;21745;-79
2023/02/03 15:02:26;;;;;;;23.62;9.88;;;;;;;3.93;73.42;99840.67;1771277;79;21804;-79
2023/02/03 15:05:37;;;;;;;111.88;48.25;;;;;;;3.76;73.49;99843.09;1729182;82;21771;-86